createdAt,value
2018-10-12T00:01:20.484Z,99.90
2018-10-12T00:03:49.614Z,99.90
2018-10-12T00:06:17.972Z,99.90
2018-10-12T00:08:46.352Z,99.90
2018-10-12T00:11:14.711Z,99.90
2018-10-12T00:13:43.842Z,99.90
2018-10-12T00:16:12.200Z,99.90
2018-10-12T00:18:40.572Z,99.90
2018-10-12T00:21:09.700Z,99.90
2018-10-12T00:23:38.080Z,99.90
2018-10-12T00:26:06.437Z,99.90
2018-10-12T00:28:35.558Z,99.90
2018-10-12T00:31:03.964Z,99.90
2018-10-12T00:33:32.317Z,99.90
2018-10-12T00:36:00.704Z,99.90
2018-10-12T00:38:29.076Z,99.90
2018-10-12T00:40:57.452Z,99.90
2018-10-12T00:43:25.807Z,99.90
2018-10-12T00:45:54.208Z,99.90
2018-10-12T00:48:22.590Z,99.90
2018-10-12T00:50:50.950Z,99.90
2018-10-12T00:53:19.330Z,99.90
2018-10-12T00:55:47.673Z,99.90
2018-10-12T00:58:16.092Z,99.90
2018-10-12T01:00:44.446Z,99.90
2018-10-12T01:03:12.796Z,99.90
2018-10-12T01:05:41.132Z,99.90
2018-10-12T01:08:09.510Z,99.90
2018-10-12T01:10:37.866Z,99.90
2018-10-12T01:13:06.206Z,99.90
2018-10-12T01:15:34.552Z,99.90
2018-10-12T01:18:02.922Z,99.90
2018-10-12T01:20:31.276Z,99.90
2018-10-12T01:22:59.658Z,99.90
2018-10-12T01:25:27.999Z,99.90
2018-10-12T01:27:56.341Z,99.90
2018-10-12T01:30:24.724Z,99.90
2018-10-12T01:32:53.063Z,99.90
2018-10-12T01:35:21.422Z,99.90
2018-10-12T01:37:49.754Z,99.90
2018-10-12T01:40:18.128Z,99.90
2018-10-12T01:42:46.458Z,99.90
2018-10-12T01:45:14.834Z,99.90
2018-10-12T01:47:43.168Z,99.90
2018-10-12T01:50:11.554Z,99.90
2018-10-12T01:52:39.898Z,99.90
2018-10-12T01:55:08.258Z,99.90
2018-10-12T01:57:36.618Z,99.90
2018-10-12T02:00:04.997Z,99.90
2018-10-12T02:02:33.351Z,99.90
2018-10-12T02:05:01.718Z,99.90
2018-10-12T02:07:30.069Z,99.90
2018-10-12T02:09:58.452Z,99.90
2018-10-12T02:12:26.790Z,99.90
2018-10-12T02:14:55.132Z,99.90
2018-10-12T02:17:23.478Z,99.90
2018-10-12T02:19:51.814Z,99.90
2018-10-12T02:22:20.205Z,99.90
2018-10-12T02:24:48.536Z,99.90
2018-10-12T02:27:17.735Z,99.90
2018-10-12T02:29:46.071Z,99.90
2018-10-12T02:32:14.441Z,99.90
2018-10-12T02:34:42.787Z,99.90
2018-10-12T02:37:11.181Z,99.90
2018-10-12T02:39:39.534Z,99.90
2018-10-12T02:42:07.872Z,99.90
2018-10-12T02:44:36.292Z,99.90
2018-10-12T02:47:05.430Z,99.90
2018-10-12T02:49:33.778Z,99.90
2018-10-12T02:52:02.113Z,99.90
2018-10-12T02:54:30.465Z,99.90
2018-10-12T02:56:58.811Z,99.90
2018-10-12T02:59:27.190Z,99.90
2018-10-12T03:02:01.484Z,99.90
2018-10-12T03:04:29.866Z,99.90
2018-10-12T03:06:58.218Z,99.90
2018-10-12T03:09:26.572Z,99.90
2018-10-12T03:11:54.918Z,99.90
2018-10-12T03:14:23.232Z,99.90
2018-10-12T03:16:51.612Z,99.90
2018-10-12T03:19:19.994Z,99.90
2018-10-12T03:21:48.375Z,99.90
2018-10-12T03:24:16.726Z,99.90
2018-10-12T03:26:45.070Z,99.90
2018-10-12T03:29:13.436Z,99.90
2018-10-12T03:31:41.787Z,99.90
2018-10-12T03:34:10.126Z,99.90
2018-10-12T03:36:39.268Z,99.90
2018-10-12T03:39:07.614Z,99.90
2018-10-12T03:41:35.984Z,99.90
2018-10-12T03:44:04.328Z,99.90
2018-10-12T03:46:32.696Z,99.90
2018-10-12T03:49:01.036Z,99.90
2018-10-12T03:51:29.500Z,99.90
2018-10-12T03:53:58.614Z,99.90
2018-10-12T03:56:27.042Z,99.90
2018-10-12T03:58:56.296Z,99.90
2018-10-12T04:01:24.660Z,99.90
2018-10-12T04:03:53.006Z,99.90
2018-10-12T04:06:21.357Z,99.90
2018-10-12T04:08:49.779Z,99.90
2018-10-12T04:11:18.116Z,99.90
2018-10-12T04:13:46.471Z,99.90
2018-10-12T04:16:14.848Z,99.90
2018-10-12T04:18:43.181Z,99.90
2018-10-12T04:21:11.595Z,99.90
2018-10-12T04:23:40.750Z,99.90
2018-10-12T04:26:09.091Z,99.90
2018-10-12T04:28:37.476Z,99.90
2018-10-12T04:31:05.811Z,99.90
2018-10-12T04:33:34.927Z,99.90
2018-10-12T04:36:04.061Z,99.90
2018-10-12T04:38:32.400Z,99.90
2018-10-12T04:41:01.564Z,99.90
2018-10-12T04:43:29.943Z,99.90
2018-10-12T04:45:58.303Z,99.90
2018-10-12T04:48:26.643Z,99.90
2018-10-12T04:50:55.024Z,99.90
2018-10-12T04:53:24.118Z,99.90
2018-10-12T04:55:52.497Z,99.90
2018-10-12T04:58:20.837Z,99.90
2018-10-12T05:00:49.271Z,99.90
2018-10-12T05:03:17.597Z,99.90
2018-10-12T05:05:45.972Z,99.90
2018-10-12T05:08:14.327Z,99.90
2018-10-12T05:10:42.679Z,99.90
2018-10-12T05:13:11.067Z,99.90
2018-10-12T05:15:39.411Z,99.90
2018-10-12T05:18:08.557Z,99.90
2018-10-12T05:20:36.907Z,99.90
2018-10-12T05:23:05.281Z,99.90
2018-10-12T05:25:34.437Z,99.90
2018-10-12T05:28:02.823Z,99.90
2018-10-12T05:30:31.171Z,99.90
2018-10-12T05:32:59.511Z,99.90
2018-10-12T05:35:28.646Z,99.90
2018-10-12T05:37:57.047Z,99.90
2018-10-12T05:40:25.467Z,99.90
2018-10-12T05:42:54.627Z,99.90
2018-10-12T05:45:22.967Z,99.90
2018-10-12T05:47:51.320Z,99.90
2018-10-12T05:50:20.440Z,99.90
2018-10-12T05:52:48.803Z,99.90
2018-10-12T05:55:17.909Z,99.90
2018-10-12T05:57:46.275Z,99.90
2018-10-12T06:00:15.389Z,99.90
2018-10-12T06:02:43.741Z,99.90
2018-10-12T06:05:12.868Z,99.90
2018-10-12T06:07:41.263Z,99.90
2018-10-12T06:10:09.752Z,99.90
2018-10-12T06:12:37.991Z,99.90
2018-10-12T06:15:06.335Z,99.90
2018-10-12T06:17:34.693Z,99.90
2018-10-12T06:20:03.053Z,99.90
2018-10-12T06:22:31.561Z,99.90
2018-10-12T06:25:00.619Z,99.90
2018-10-12T06:27:28.965Z,99.90
2018-10-12T06:29:57.304Z,99.90
2018-10-12T06:32:25.673Z,99.90
2018-10-12T06:34:54.021Z,99.90
2018-10-12T06:37:23.229Z,99.90
2018-10-12T06:39:51.573Z,99.90
2018-10-12T06:42:19.917Z,99.90
2018-10-12T06:44:48.269Z,99.90
2018-10-12T06:47:16.645Z,99.90
2018-10-12T06:49:45.731Z,99.90
2018-10-12T06:52:14.122Z,99.90
2018-10-12T06:54:42.462Z,99.90
2018-10-12T06:57:10.839Z,99.90
2018-10-12T06:59:39.186Z,99.90
2018-10-12T07:02:07.533Z,99.90
2018-10-12T07:04:35.875Z,99.90
2018-10-12T07:07:04.979Z,99.90
2018-10-12T07:09:34.142Z,99.90
2018-10-12T07:12:02.487Z,99.90
2018-10-12T07:14:30.892Z,99.90
2018-10-12T07:16:59.213Z,99.90
2018-10-12T07:19:28.383Z,99.90
2018-10-12T07:21:56.688Z,99.90
2018-10-12T07:24:25.813Z,99.90
2018-10-12T07:26:54.165Z,99.90
2018-10-12T07:29:22.554Z,99.90
2018-10-12T07:31:51.661Z,99.90
2018-10-12T07:34:20.066Z,99.90
2018-10-12T07:36:48.421Z,99.90
2018-10-12T07:39:16.823Z,99.90
2018-10-12T07:41:45.144Z,99.90
2018-10-12T07:44:13.498Z,99.90
2018-10-12T07:46:41.833Z,99.90
2018-10-12T07:49:10.174Z,99.90
2018-10-12T07:51:38.598Z,99.90
2018-10-12T07:54:06.991Z,99.90
2018-10-12T07:56:35.357Z,99.90
2018-10-12T07:59:03.721Z,99.90
2018-10-12T08:01:32.831Z,99.90
2018-10-12T08:04:01.183Z,99.90
2018-10-12T08:06:29.577Z,99.90
2018-10-12T08:08:57.857Z,99.90
2018-10-12T08:11:26.263Z,99.90
2018-10-12T08:13:54.701Z,99.90
2018-10-12T08:16:23.046Z,99.90
2018-10-12T08:18:51.419Z,99.90
2018-10-12T08:21:19.776Z,99.90
2018-10-12T08:23:48.162Z,99.90
2018-10-12T08:26:16.532Z,99.90
2018-10-12T08:28:44.919Z,99.90
2018-10-12T08:31:13.254Z,99.90
2018-10-12T08:33:42.393Z,99.90
2018-10-12T08:36:10.764Z,99.90
2018-10-12T08:38:39.147Z,99.90
2018-10-12T08:41:07.511Z,99.90
2018-10-12T08:43:35.886Z,99.90
2018-10-12T08:46:04.205Z,99.90
2018-10-12T08:48:32.560Z,99.90
2018-10-12T08:51:00.922Z,99.90
2018-10-12T08:53:30.035Z,99.90
2018-10-12T08:55:58.379Z,99.90
2018-10-12T08:58:27.493Z,99.90
2018-10-12T09:00:56.607Z,99.90
2018-10-12T09:03:24.982Z,99.90
2018-10-12T09:05:53.370Z,99.90
2018-10-12T09:08:21.711Z,99.90
2018-10-12T09:10:50.059Z,99.90
2018-10-12T09:13:18.409Z,99.90
2018-10-12T09:15:46.779Z,99.90
2018-10-12T09:18:15.161Z,99.90
2018-10-12T09:20:43.530Z,99.90
2018-10-12T09:23:12.654Z,99.90
2018-10-12T09:25:41.017Z,99.90
2018-10-12T09:28:09.397Z,99.90
2018-10-12T09:30:38.248Z,99.90
2018-10-12T09:33:07.354Z,99.90
2018-10-12T09:35:36.455Z,99.90
2018-10-12T09:38:05.590Z,99.90
2018-10-12T09:40:34.049Z,99.90
2018-10-12T09:43:03.056Z,99.90
2018-10-12T09:45:31.414Z,99.90
2018-10-12T09:48:00.515Z,99.90
2018-10-12T09:50:28.921Z,99.90
2018-10-12T09:52:57.275Z,99.90
2018-10-12T09:55:26.367Z,99.90
2018-10-12T09:57:54.711Z,99.90
2018-10-12T10:00:23.057Z,99.90
2018-10-12T10:02:51.418Z,99.90
2018-10-12T10:05:19.749Z,99.90
2018-10-12T10:07:48.283Z,99.90
2018-10-12T10:10:16.597Z,99.90
2018-10-12T10:12:44.973Z,99.90
2018-10-12T10:15:13.445Z,99.90
2018-10-12T10:17:41.813Z,99.90
2018-10-12T10:20:10.159Z,99.90
2018-10-12T10:22:38.541Z,99.90
2018-10-12T10:25:06.984Z,99.90
2018-10-12T10:27:35.239Z,99.90
2018-10-12T10:30:03.597Z,99.90
2018-10-12T10:32:31.973Z,99.90
2018-10-12T10:35:00.438Z,99.90
2018-10-12T10:37:28.812Z,99.90
2018-10-12T10:39:58.133Z,99.90
2018-10-12T10:42:26.510Z,99.90
2018-10-12T10:44:54.875Z,99.90
2018-10-12T10:47:23.405Z,99.90
2018-10-12T10:49:51.839Z,99.90
2018-10-12T10:52:20.233Z,99.90
2018-10-12T10:54:48.588Z,99.90
2018-10-12T10:57:16.975Z,99.90
2018-10-12T10:59:45.360Z,99.90
2018-10-12T11:02:13.739Z,98.30
2018-10-12T11:04:42.129Z,96.50
2018-10-12T11:07:10.490Z,95.00
2018-10-12T11:09:39.691Z,91.90
2018-10-12T11:12:08.887Z,90.50
2018-10-12T11:14:37.203Z,90.40
2018-10-12T11:17:05.539Z,87.10
2018-10-12T11:19:34.698Z,80.90
2018-10-12T11:22:03.007Z,80.50
2018-10-12T11:24:31.463Z,78.00
2018-10-12T11:26:59.819Z,73.10
2018-10-12T11:29:28.183Z,72.60
2018-10-12T11:31:56.525Z,73.20
2018-10-12T11:34:25.644Z,68.90
2018-10-12T11:36:54.001Z,69.00
2018-10-12T11:39:23.145Z,68.30
2018-10-12T11:41:51.489Z,68.30
2018-10-12T11:44:20.615Z,65.10
2018-10-12T11:46:48.950Z,65.10
2018-10-12T11:49:18.068Z,65.10
2018-10-12T11:51:46.395Z,65.10
2018-10-12T11:54:14.842Z,67.70
2018-10-12T11:56:43.166Z,66.80
2018-10-12T11:59:11.536Z,66.40
2018-10-12T12:01:39.877Z,67.60
2018-10-12T12:04:08.248Z,67.70
2018-10-12T12:06:36.595Z,66.90
2018-10-12T12:09:04.940Z,65.20
2018-10-12T12:11:33.293Z,64.00
2018-10-12T12:14:02.496Z,64.90
2018-10-12T12:16:30.772Z,64.90
2018-10-12T12:18:59.137Z,66.40
2018-10-12T12:21:27.528Z,64.70
2018-10-12T12:23:55.858Z,63.80
2018-10-12T12:26:24.287Z,64.10
2018-10-12T12:28:52.624Z,64.60
2018-10-12T12:31:21.062Z,66.30
2018-10-12T12:33:49.998Z,68.00
2018-10-12T12:36:19.178Z,64.30
2018-10-12T12:38:47.464Z,64.70
2018-10-12T12:41:15.909Z,65.70
2018-10-12T12:43:44.266Z,62.80
2018-10-12T12:46:12.599Z,64.60
2018-10-12T12:48:41.172Z,64.70
2018-10-12T12:51:09.391Z,63.00
2018-10-12T12:53:38.562Z,61.00
2018-10-12T12:56:06.840Z,61.00
2018-10-12T12:58:35.261Z,60.20
2018-10-12T13:01:03.625Z,59.60
2018-10-12T13:03:32.780Z,61.20
2018-10-12T13:06:01.123Z,60.70
2018-10-12T13:08:29.476Z,60.70
2018-10-12T13:10:57.892Z,59.50
2018-10-12T13:13:26.232Z,59.10
2018-10-12T13:15:54.644Z,59.10
2018-10-12T13:18:23.035Z,59.70
2018-10-12T13:20:51.361Z,59.90
2018-10-12T13:23:20.590Z,58.30
2018-10-12T13:25:49.028Z,58.30
2018-10-12T13:28:18.120Z,59.70
2018-10-12T13:30:46.526Z,58.90
2018-10-12T13:33:15.620Z,57.70
2018-10-12T13:35:44.051Z,57.60
2018-10-12T13:38:12.426Z,57.40
2018-10-12T13:40:40.879Z,58.00
2018-10-12T13:43:09.352Z,57.60
2018-10-12T13:45:37.728Z,57.10
2018-10-12T13:48:06.151Z,57.60
2018-10-12T13:50:34.505Z,57.20
2018-10-12T13:53:02.881Z,56.90
2018-10-12T13:55:31.979Z,58.00
2018-10-12T13:58:00.320Z,57.80
2018-10-12T14:00:29.004Z,58.10
2018-10-12T14:02:58.105Z,56.10
2018-10-12T14:05:26.392Z,56.10
2018-10-12T14:07:55.543Z,56.40
2018-10-12T14:10:24.055Z,56.30
2018-10-12T14:12:52.294Z,57.40
2018-10-12T14:15:20.621Z,57.20
2018-10-12T14:17:49.076Z,56.60
2018-10-12T14:20:17.513Z,57.00
2018-10-12T14:22:45.857Z,57.90
2018-10-12T14:25:14.360Z,58.20
2018-10-12T14:27:42.645Z,56.60
2018-10-12T14:30:11.026Z,56.50
2018-10-12T14:32:40.146Z,57.10
2018-10-12T14:35:08.516Z,57.00
2018-10-12T14:37:36.923Z,57.50
2018-10-12T14:40:05.281Z,57.90
2018-10-12T14:42:33.629Z,57.80
2018-10-12T14:45:02.144Z,58.30
2018-10-12T14:47:30.379Z,58.00
2018-10-12T14:50:00.315Z,58.90
2018-10-12T14:52:29.519Z,59.40
2018-10-12T14:54:57.859Z,59.30
2018-10-12T14:57:26.300Z,59.00
2018-10-12T14:59:54.630Z,61.00
2018-10-12T15:02:23.784Z,63.60
2018-10-12T15:04:52.143Z,64.20
2018-10-12T15:07:20.486Z,65.40
2018-10-12T15:09:49.632Z,67.40
2018-10-12T15:12:18.114Z,67.40
2018-10-12T15:14:46.927Z,67.90
2018-10-12T15:17:15.410Z,68.60
2018-10-12T15:19:43.885Z,70.10
2018-10-12T15:22:12.296Z,71.90
2018-10-12T15:24:40.752Z,71.70
2018-10-12T15:27:09.124Z,74.00
2018-10-12T15:29:37.553Z,73.80
2018-10-12T15:32:06.858Z,74.50
2018-10-12T15:34:35.154Z,74.50
2018-10-12T15:37:04.164Z,74.70
2018-10-12T15:39:32.485Z,75.20
2018-10-12T15:42:02.778Z,78.00
2018-10-12T15:44:31.187Z,77.20
2018-10-12T15:46:59.565Z,77.80
2018-10-12T15:49:28.721Z,79.70
2018-10-12T15:51:57.072Z,79.30
2018-10-12T15:54:25.457Z,80.50
2018-10-12T15:56:53.880Z,81.10
2018-10-12T15:59:22.164Z,81.80
2018-10-12T16:01:50.519Z,82.70
2018-10-12T16:04:18.909Z,83.60
2018-10-12T16:06:47.407Z,83.50
2018-10-12T16:09:15.905Z,84.30
2018-10-12T16:11:44.719Z,84.90
2018-10-12T16:14:13.221Z,85.60
2018-10-12T16:16:41.917Z,84.60
2018-10-12T16:19:10.295Z,85.10
2018-10-12T16:21:38.674Z,85.60
2018-10-12T16:24:07.051Z,86.00
2018-10-12T16:26:35.417Z,86.30
2018-10-12T16:29:04.699Z,86.70
2018-10-12T16:31:32.985Z,86.60
2018-10-12T16:34:01.365Z,86.80
2018-10-12T16:36:30.449Z,87.10
2018-10-12T16:38:59.675Z,87.50
2018-10-12T16:41:28.015Z,87.40
2018-10-12T16:43:57.345Z,88.40
2018-10-12T16:46:25.709Z,88.40
2018-10-12T16:48:54.876Z,88.90
2018-10-12T16:51:23.183Z,88.80
2018-10-12T16:53:52.395Z,89.30
2018-10-12T16:56:20.817Z,89.20
2018-10-12T16:58:49.259Z,89.50
2018-10-12T17:01:17.675Z,90.00
2018-10-12T17:03:46.013Z,90.00
2018-10-12T17:06:14.397Z,90.10
2018-10-12T17:08:42.854Z,90.30
2018-10-12T17:11:11.820Z,90.60
2018-10-12T17:13:40.196Z,90.70
2018-10-12T17:16:08.532Z,91.00
2018-10-12T17:18:36.906Z,91.40
2018-10-12T17:21:06.127Z,91.70
2018-10-12T17:23:34.479Z,91.60
2018-10-12T17:26:02.854Z,91.80
2018-10-12T17:28:32.010Z,92.40
2018-10-12T17:31:00.396Z,92.40
2018-10-12T17:33:28.766Z,92.70
2018-10-12T17:35:57.118Z,93.00
2018-10-12T17:38:25.491Z,93.20
2018-10-12T17:40:53.886Z,93.40
2018-10-12T17:43:22.270Z,93.80
2018-10-12T17:45:50.664Z,94.00
2018-10-12T17:48:19.026Z,94.30
2018-10-12T17:50:47.366Z,94.70
2018-10-12T17:53:15.736Z,95.00
2018-10-12T17:55:44.900Z,95.60
2018-10-12T17:58:13.272Z,95.60
2018-10-12T18:00:41.676Z,95.90
2018-10-12T18:03:10.817Z,96.10
2018-10-12T18:05:39.152Z,96.40
2018-10-12T18:08:07.528Z,96.70
2018-10-12T18:10:36.545Z,96.90
2018-10-12T18:13:04.905Z,97.20
2018-10-12T18:15:33.297Z,97.50
2018-10-12T18:18:01.696Z,97.80
2018-10-12T18:20:30.103Z,98.10
2018-10-12T18:22:58.513Z,98.30
2018-10-12T18:25:26.923Z,98.50
2018-10-12T18:27:55.344Z,98.80
2018-10-12T18:30:23.691Z,99.00
2018-10-12T18:32:52.077Z,99.10
2018-10-12T18:35:20.461Z,99.30
2018-10-12T18:37:48.809Z,99.40
2018-10-12T18:40:17.193Z,99.50
2018-10-12T18:42:46.320Z,99.60
2018-10-12T18:45:14.680Z,99.90
2018-10-12T18:47:43.917Z,99.70
2018-10-12T18:50:12.319Z,99.70
2018-10-12T18:52:40.683Z,99.80
2018-10-12T18:55:09.069Z,99.80
2018-10-12T18:57:37.590Z,99.80
2018-10-12T19:00:06.750Z,99.80
2018-10-12T19:02:35.882Z,99.70
2018-10-12T19:05:04.330Z,99.70
2018-10-12T19:07:32.748Z,99.70
2018-10-12T19:10:01.173Z,99.70
2018-10-12T19:12:29.593Z,99.70
2018-10-12T19:14:57.967Z,99.60
2018-10-12T19:17:26.441Z,99.60
2018-10-12T19:19:54.911Z,99.60
2018-10-12T19:22:23.260Z,99.60
2018-10-12T19:24:51.615Z,99.70
2018-10-12T19:27:20.787Z,99.80
2018-10-12T19:29:49.125Z,99.80
2018-10-12T19:32:17.557Z,99.80
2018-10-12T19:34:45.952Z,99.90
2018-10-12T19:37:15.086Z,99.90
2018-10-12T19:39:43.526Z,99.90
2018-10-12T19:42:11.965Z,99.90
2018-10-12T19:44:40.379Z,99.90
2018-10-12T19:47:09.372Z,99.90
2018-10-12T19:49:37.742Z,99.90
2018-10-12T19:52:06.133Z,99.90
2018-10-12T19:54:35.311Z,99.90
2018-10-12T19:57:03.734Z,99.90
2018-10-12T19:59:32.066Z,99.90
2018-10-12T20:02:00.624Z,99.90
2018-10-12T20:04:29.023Z,99.90
2018-10-12T20:06:57.834Z,99.90
2018-10-12T20:09:26.179Z,99.90
2018-10-12T20:11:55.243Z,99.90
2018-10-12T20:14:24.370Z,99.90
2018-10-12T20:16:52.762Z,99.90
2018-10-12T20:19:21.245Z,99.90
2018-10-12T20:21:49.572Z,99.90
2018-10-12T20:24:17.965Z,99.90
2018-10-12T20:26:46.297Z,99.90
2018-10-12T20:29:14.727Z,99.90
2018-10-12T20:31:43.213Z,99.90
2018-10-12T20:34:11.448Z,99.90
2018-10-12T20:36:40.743Z,99.90
2018-10-12T20:39:09.151Z,99.90
2018-10-12T20:41:37.468Z,99.90
2018-10-12T20:44:05.860Z,99.90
2018-10-12T20:46:34.197Z,99.90
2018-10-12T20:49:02.564Z,99.90
2018-10-12T20:51:31.052Z,99.90
2018-10-12T20:53:59.461Z,99.90
2018-10-12T20:56:27.789Z,99.90
2018-10-12T20:58:56.134Z,99.90
2018-10-12T21:01:25.246Z,99.90
2018-10-12T21:03:53.610Z,99.90
2018-10-12T21:06:21.946Z,99.90
2018-10-12T21:08:50.325Z,99.90
2018-10-12T21:11:18.732Z,99.90
2018-10-12T21:13:47.098Z,99.90
2018-10-12T21:16:15.435Z,99.90
2018-10-12T21:18:44.581Z,99.90
2018-10-12T21:21:12.915Z,99.90
2018-10-12T21:23:42.036Z,99.90
2018-10-12T21:26:10.380Z,99.90
2018-10-12T21:28:39.492Z,99.90
2018-10-12T21:31:07.849Z,99.90
2018-10-12T21:33:37.385Z,99.90
2018-10-12T21:36:06.636Z,99.90
2018-10-12T21:38:34.980Z,99.90
2018-10-12T21:41:03.355Z,99.90
2018-10-12T21:43:31.706Z,99.90
2018-10-12T21:46:00.826Z,99.90
2018-10-12T21:48:29.183Z,99.90
2018-10-12T21:50:58.350Z,99.90
2018-10-12T21:53:27.023Z,99.90
2018-10-12T21:55:55.398Z,99.90
2018-10-12T21:58:23.743Z,99.90
2018-10-12T22:00:52.086Z,99.90
2018-10-12T22:03:20.425Z,99.90
2018-10-12T22:05:48.806Z,99.90
2018-10-12T22:08:17.167Z,99.90
2018-10-12T22:10:46.408Z,99.90
2018-10-12T22:13:14.757Z,99.90
2018-10-12T22:15:43.096Z,99.90
2018-10-12T22:18:12.222Z,99.90
2018-10-12T22:20:40.565Z,99.90
2018-10-12T22:23:08.916Z,99.90
2018-10-12T22:25:37.278Z,99.90
2018-10-12T22:28:05.642Z,99.90
2018-10-12T22:30:34.000Z,99.90
2018-10-12T22:33:03.156Z,99.90
2018-10-12T22:35:31.460Z,99.90
2018-10-12T22:37:59.822Z,99.90
2018-10-12T22:40:28.170Z,99.90
2018-10-12T22:42:56.583Z,99.90
2018-10-12T22:45:24.880Z,99.90
2018-10-12T22:47:53.232Z,99.90
2018-10-12T22:50:21.592Z,99.90
2018-10-12T22:52:49.926Z,99.90
2018-10-12T22:55:18.286Z,99.90
2018-10-12T22:57:46.632Z,99.90
2018-10-12T23:00:14.981Z,99.90
2018-10-12T23:02:43.324Z,99.90
2018-10-12T23:05:12.476Z,99.90
2018-10-12T23:07:40.821Z,99.90
2018-10-12T23:10:09.204Z,99.90
2018-10-12T23:12:37.622Z,99.90
2018-10-12T23:15:05.949Z,99.90
2018-10-12T23:17:34.283Z,99.90
2018-10-12T23:20:02.611Z,99.90
2018-10-12T23:22:31.020Z,99.90
2018-10-12T23:24:59.354Z,99.90
2018-10-12T23:27:27.715Z,99.90
2018-10-12T23:29:56.062Z,99.90
2018-10-12T23:32:24.419Z,99.90
2018-10-12T23:34:52.761Z,99.90
2018-10-12T23:37:21.116Z,99.90
2018-10-12T23:39:49.777Z,99.90
2018-10-12T23:42:18.119Z,99.90
2018-10-12T23:44:46.455Z,99.90
2018-10-12T23:47:14.841Z,99.90
2018-10-12T23:49:44.132Z,99.90
2018-10-12T23:52:12.498Z,99.90
2018-10-12T23:54:40.851Z,99.90
2018-10-12T23:57:09.211Z,99.90
2018-10-12T23:59:38.321Z,99.90
